Time;durP1;ratioP1;P1;durP2;ratioP2;P2;SDS_P1;SDS_P2;PMS_P1;PMS_P2;Temp;Humidity;BMP_temperature;BMP_pressure;BME280_temperature;BME280_humidity;BME280_pressure;Samples;Min_cycle;Max_cycle;Signal;HPM_P1;HPM_P2
2023/09/29 00:02:21;;;;;;;7.18;4.90;;;;;;;20.28;48.65;100041.94;10462325;28;20289;-69
2023/09/29 00:07:23;;;;;;;7.07;4.57;;;;;;;19.41;49.52;100064.53;10462570;28;20234;-69
2023/09/29 00:12:25;;;;;;;8.13;4.70;;;;;;;17.62;53.37;100012.69;10466259;28;20235;-70
2023/09/29 00:17:27;;;;;;;9.85;4.70;;;;;;;18.70;51.73;99935.13;10473164;28;20223;-69
2023/09/29 00:22:28;;;;;;;9.40;5.30;;;;;;;18.30;52.96;99968.28;10469640;28;20270;-70
2023/09/29 00:27:30;;;;;;;7.18;5.07;;;;;;;19.53;50.82;99984.72;10472021;28;21048;-70
2023/09/29 00:32:32;;;;;;;5.70;4.72;;;;;;;19.72;50.67;99990.88;10469487;28;20935;-70
2023/09/29 00:37:34;;;;;;;7.18;5.90;;;;;;;18.99;52.69;99990.34;10473613;28;20243;-70
2023/09/29 00:42:36;;;;;;;8.10;5.60;;;;;;;18.74;53.27;99993.25;10470149;28;20729;-70
2023/09/29 00:47:38;;;;;;;10.20;5.57;;;;;;;19.68;51.73;99973.41;10468863;28;20612;-69
2023/09/29 00:52:42;;;;;;;6.50;5.47;;;;;;;18.50;53.88;100015.94;10467630;28;20704;-69
2023/09/29 00:57:47;;;;;;;7.60;5.60;;;;;;;18.02;54.71;99993.28;10473297;28;20238;-68
2023/09/29 01:02:49;;;;;;;7.95;4.90;;;;;;;19.35;52.02;99958.59;10462315;28;20322;-70
2023/09/29 01:07:52;;;;;;;8.93;5.20;;;;;;;18.61;53.33;100002.41;10468226;28;20234;-70
2023/09/29 01:12:53;;;;;;;6.75;5.03;;;;;;;18.77;52.57;100014.44;10467724;28;20227;-70
2023/09/29 01:17:55;;;;;;;6.63;4.78;;;;;;;18.76;53.67;99999.25;10467353;28;20262;-69
2023/09/29 01:23:00;;;;;;;7.88;5.57;;;;;;;18.76;53.83;99972.16;10463688;28;20224;-69
2023/09/29 01:28:07;;;;;;;7.17;5.33;;;;;;;19.00;53.45;99966.78;10465746;28;20231;-68
2023/09/29 01:33:09;;;;;;;9.70;5.20;;;;;;;18.44;54.25;99994.13;10481250;28;20255;-68
2023/09/29 01:38:11;;;;;;;7.90;5.18;;;;;;;18.76;54.14;99917.94;10467216;28;20228;-68
2023/09/29 01:43:13;;;;;;;6.18;5.20;;;;;;;18.68;53.73;99993.38;10466170;28;20328;-68
2023/09/29 01:48:15;;;;;;;9.63;5.60;;;;;;;18.95;52.55;99974.78;10468963;28;20334;-69
2023/09/29 01:53:16;;;;;;;8.23;5.35;;;;;;;17.87;55.11;99988.25;10464648;28;20728;-74
2023/09/29 01:58:18;;;;;;;9.68;5.15;;;;;;;19.25;51.73;99968.38;10468611;28;20316;-71
2023/09/29 02:03:21;;;;;;;7.30;5.00;;;;;;;18.82;52.25;100011.88;10469584;28;20235;-72
2023/09/29 02:08:24;;;;;;;10.82;5.68;;;;;;;18.45;53.66;99994.97;10467730;28;21134;-72
2023/09/29 02:13:26;;;;;;;7.07;5.05;;;;;;;18.49;52.85;99998.03;10468002;28;20839;-71
2023/09/29 02:18:27;;;;;;;5.67;4.37;;;;;;;18.66;52.15;99996.31;10465580;28;20323;-72
2023/09/29 02:23:29;;;;;;;8.87;5.20;;;;;;;18.33;52.84;100011.19;10468046;28;20300;-71
2023/09/29 02:28:32;;;;;;;7.70;4.67;;;;;;;19.45;50.64;99970.72;10464979;28;20239;-72
2023/09/29 02:33:34;;;;;;;6.80;5.10;;;;;;;19.21;51.96;99957.19;10469849;28;20332;-73
2023/09/29 02:38:38;;;;;;;8.98;5.78;;;;;;;19.46;50.98;99994.91;10463812;28;20234;-73
2023/09/29 02:43:40;;;;;;;7.30;5.28;;;;;;;20.00;49.75;99993.84;10465737;28;20241;-72
2023/09/29 02:48:42;;;;;;;8.25;5.72;;;;;;;19.13;51.51;100037.06;10464427;28;20268;-73
2023/09/29 02:53:44;;;;;;;5.93;5.32;;;;;;;18.22;53.46;100039.84;10465585;28;20338;-73
2023/09/29 02:58:46;;;;;;;6.70;5.25;;;;;;;18.16;53.65;100004.75;10466000;28;20235;-72
2023/09/29 03:03:49;;;;;;;5.93;4.73;;;;;;;18.45;52.41;100033.69;10467960;28;20235;-71
2023/09/29 03:08:58;;;;;;;7.10;5.13;;;;;;;17.66;53.66;100066.16;10463379;28;20646;-72
2023/09/29 03:14:00;;;;;;;7.57;4.57;;;;;;;18.35;53.27;99971.13;10467359;28;20240;-74
2023/09/29 03:19:03;;;;;;;5.40;4.53;;;;;;;18.77;52.03;100016.34;10465245;28;21021;-72
2023/09/29 03:24:07;;;;;;;6.07;4.83;;;;;;;17.46;54.18;100050.09;10465137;28;20852;-72
2023/09/29 03:29:09;;;;;;;7.07;4.80;;;;;;;18.93;51.89;99976.88;10466272;28;20612;-72
2023/09/29 03:34:11;;;;;;;7.43;4.90;;;;;;;18.31;52.80;100034.16;10466993;28;20219;-71
2023/09/29 03:39:12;;;;;;;7.80;5.60;;;;;;;18.01;53.14;100040.34;10465723;28;20250;-72
2023/09/29 03:44:14;;;;;;;6.53;5.20;;;;;;;17.24;55.14;100024.50;10467299;28;20227;-72
2023/09/29 03:49:19;;;;;;;7.10;4.60;;;;;;;17.50;54.70;100018.81;10475683;28;20330;-72
2023/09/29 03:54:21;;;;;;;7.72;4.78;;;;;;;17.42;54.37;100051.56;10471739;28;20284;-72
2023/09/29 03:59:24;;;;;;;6.30;4.78;;;;;;;17.94;53.27;100017.94;10471971;28;20763;-73
2023/09/29 04:04:25;;;;;;;7.50;4.65;;;;;;;17.83;53.21;100049.28;10467884;28;20241;-72
2023/09/29 04:09:27;;;;;;;7.20;4.67;;;;;;;17.16;55.56;100031.03;10472243;28;20318;-72
2023/09/29 04:14:30;;;;;;;7.35;5.70;;;;;;;16.56;56.41;100067.41;10474282;28;20334;-71
2023/09/29 04:19:35;;;;;;;6.33;4.87;;;;;;;17.03;55.59;100037.38;10470145;28;20266;-73
2023/09/29 04:24:37;;;;;;;8.03;5.77;;;;;;;17.61;54.35;100016.41;10457863;28;20231;-72
2023/09/29 04:29:39;;;;;;;7.17;5.37;;;;;;;17.50;54.82;100034.25;10471221;28;20330;-71
2023/09/29 04:34:41;;;;;;;8.53;5.53;;;;;;;17.91;54.10;100000.25;10473676;28;20231;-72
2023/09/29 04:39:43;;;;;;;8.23;5.43;;;;;;;17.20;55.22;100075.50;10471955;28;20719;-73
2023/09/29 04:44:44;;;;;;;9.27;5.28;;;;;;;17.76;54.11;100016.06;10476953;28;20305;-72
2023/09/29 04:49:46;;;;;;;6.40;5.13;;;;;;;18.57;52.23;100011.25;10471530;28;20223;-72
2023/09/29 04:54:48;;;;;;;9.48;5.28;;;;;;;17.98;53.71;100048.91;10472382;28;20315;-72
2023/09/29 04:59:50;;;;;;;8.57;5.77;;;;;;;17.40;54.54;100080.72;10467400;28;20643;-73
2023/09/29 05:04:52;;;;;;;8.18;5.38;;;;;;;17.03;55.66;100059.00;10474902;28;20227;-71
2023/09/29 05:09:53;;;;;;;6.22;5.30;;;;;;;17.40;54.79;100072.63;10471149;28;20717;-69
2023/09/29 05:14:55;;;;;;;7.40;5.27;;;;;;;17.18;55.13;100086.53;10474456;28;20229;-71
2023/09/29 05:19:57;;;;;;;8.43;5.23;;;;;;;17.45;53.95;100118.75;10463992;28;20584;-71
2023/09/29 05:24:59;;;;;;;8.10;5.40;;;;;;;17.81;53.84;100046.00;10465969;28;20322;-71
2023/09/29 05:30:02;;;;;;;7.05;5.05;;;;;;;17.36;54.67;100061.44;10463486;28;20245;-72
2023/09/29 05:35:05;;;;;;;5.77;4.80;;;;;;;17.32;54.56;100051.28;10463220;28;20228;-72
2023/09/29 05:40:07;;;;;;;6.87;5.10;;;;;;;16.34;55.74;100157.91;10445750;28;20308;-71
2023/09/29 05:45:12;;;;;;;9.50;5.23;;;;;;;17.10;55.25;100075.19;10449594;28;20231;-72
2023/09/29 05:50:13;;;;;;;8.00;5.40;;;;;;;17.39;54.85;100054.72;10461444;28;20638;-72
2023/09/29 05:55:20;;;;;;;9.17;5.60;;;;;;;17.68;53.94;100076.72;10465209;28;20242;-73
2023/09/29 06:00:24;;;;;;;7.53;4.67;;;;;;;18.02;52.99;100080.72;10453810;28;20280;-74
2023/09/29 06:05:27;;;;;;;8.20;5.43;;;;;;;17.93;53.60;100073.94;10462391;28;20233;-74
2023/09/29 06:10:28;;;;;;;8.73;5.22;;;;;;;18.08;53.25;100087.94;10469083;28;20632;-74
2023/09/29 06:15:30;;;;;;;7.82;5.18;;;;;;;18.31;51.92;100143.31;10469021;28;20281;-73
2023/09/29 06:20:32;;;;;;;8.77;4.97;;;;;;;17.85;53.19;100144.63;10472836;28;20247;-78
2023/09/29 06:25:34;;;;;;;6.37;5.10;;;;;;;19.14;50.33;100083.97;10481072;28;20258;-74
2023/09/29 06:30:35;;;;;;;8.32;5.18;;;;;;;18.84;51.65;100055.84;10448560;28;20285;-74
2023/09/29 06:35:39;;;;;;;6.20;4.75;;;;;;;18.43;52.57;100083.78;10455556;28;20255;-76
2023/09/29 06:40:43;;;;;;;6.67;5.00;;;;;;;18.33;51.71;100140.38;10466558;28;20243;-75
2023/09/29 06:45:45;;;;;;;6.33;5.00;;;;;;;18.53;52.12;100077.81;10446645;28;20242;-75
2023/09/29 06:51:02;;;;;;;5.97;4.47;;;;;;;18.64;51.77;100058.88;10441767;28;20233;-75
2023/09/29 06:56:04;;;;;;;6.67;4.50;;;;;;;18.26;52.21;100149.38;10468432;28;20233;-75
2023/09/29 07:01:06;;;;;;;7.40;4.90;;;;;;;17.87;53.53;100127.13;10470145;28;20231;-75
2023/09/29 07:06:09;;;;;;;5.57;4.25;;;;;;;19.17;50.69;100095.19;10462109;28;20230;-74
2023/09/29 07:11:11;;;;;;;7.27;4.30;;;;;;;18.09;52.67;100146.44;10450086;28;20238;-75
2023/09/29 07:16:13;;;;;;;6.00;3.97;;;;;;;18.54;51.92;100110.09;10449653;28;20234;-75
2023/09/29 07:21:15;;;;;;;5.73;4.10;;;;;;;18.25;52.47;100098.97;10475609;28;20709;-74
2023/09/29 07:26:17;;;;;;;5.63;4.13;;;;;;;18.31;51.93;100115.41;10460457;28;20237;-74
2023/09/29 07:31:18;;;;;;;8.82;4.32;;;;;;;18.26;51.74;100151.25;10460382;28;20334;-75
2023/09/29 07:36:21;;;;;;;6.82;3.85;;;;;;;17.91;52.44;100147.25;10459462;28;20589;-74
2023/09/29 07:41:23;;;;;;;4.45;3.88;;;;;;;19.19;50.41;100067.81;10478272;28;20231;-74
2023/09/29 07:46:25;;;;;;;4.70;3.88;;;;;;;18.27;51.03;100153.75;10477293;28;20277;-75
2023/09/29 07:51:26;;;;;;;6.10;3.47;;;;;;;18.95;50.41;100072.41;10473188;28;20672;-75
2023/09/29 07:56:29;;;;;;;5.53;3.40;;;;;;;19.50;49.84;100035.94;10477055;28;20281;-68
2023/09/29 08:01:32;;;;;;;6.10;3.83;;;;;;;18.97;50.41;100079.22;10475860;28;20239;-68
2023/09/29 08:06:33;;;;;;;4.68;3.58;;;;;;;17.74;52.07;100192.22;10450784;28;20235;-69
2023/09/29 08:11:36;;;;;;;6.43;3.55;;;;;;;18.74;50.21;100142.34;10464402;28;20270;-69
2023/09/29 08:16:38;;;;;;;8.65;4.55;;;;;;;18.63;50.01;100159.38;10465127;28;20258;-68
2023/09/29 08:21:40;;;;;;;4.88;3.47;;;;;;;19.71;48.61;100086.13;10466176;28;20294;-69
2023/09/29 08:26:41;;;;;;;5.55;3.70;;;;;;;19.29;49.06;100133.16;10466976;28;22452;-71
2023/09/29 08:31:43;;;;;;;4.93;3.40;;;;;;;18.98;49.54;100156.00;10456842;28;20235;-68
2023/09/29 08:36:45;;;;;;;4.22;3.47;;;;;;;19.83;48.48;100097.78;10472467;28;20223;-69
2023/09/29 08:42:03;;;;;;;4.82;3.17;;;;;;;20.18;47.96;100112.38;10470926;28;20231;-69
2023/09/29 08:47:07;;;;;;;4.85;3.20;;;;;;;21.54;45.71;100061.69;10473166;28;20317;-68
2023/09/29 08:52:11;;;;;;;4.10;3.17;;;;;;;20.75;47.05;100112.38;10469604;28;20241;-69
2023/09/29 08:57:13;;;;;;;4.32;3.20;;;;;;;21.27;46.55;100148.63;10470413;28;20219;-69
2023/09/29 09:02:15;;;;;;;5.00;3.30;;;;;;;21.70;45.29;100118.00;10465653;28;20235;-69
2023/09/29 09:07:18;;;;;;;3.72;2.90;;;;;;;21.34;46.04;100113.91;10403553;28;20718;-69
2023/09/29 09:12:33;;;;;;;4.68;3.00;;;;;;;21.45;45.76;100104.03;10429099;28;20294;-68
2023/09/29 09:17:37;;;;;;;3.35;2.70;;;;;;;21.12;45.86;100149.19;10432101;28;20278;-68
2023/09/29 09:22:40;;;;;;;7.82;3.30;;;;;;;21.88;44.91;100097.00;10432151;28;20236;-68
2023/09/29 09:27:52;;;;;;;4.32;3.20;;;;;;;21.88;44.34;100099.72;10410956;28;20705;-69
2023/09/29 09:32:54;;;;;;;4.07;3.03;;;;;;;22.31;44.38;100090.72;10431093;28;20232;-69
2023/09/29 09:37:57;;;;;;;4.22;3.10;;;;;;;22.44;44.18;100086.78;10429696;28;20204;-68
2023/09/29 09:43:03;;;;;;;3.88;3.05;;;;;;;22.95;43.79;100069.28;10429273;28;20310;-69
2023/09/29 09:48:10;;;;;;;5.53;3.13;;;;;;;22.98;43.81;100096.03;10429335;28;20653;-68
2023/09/29 09:53:13;;;;;;;4.18;2.67;;;;;;;22.06;44.83;100129.41;10409472;28;20235;-69
2023/09/29 09:58:17;;;;;;;5.22;3.15;;;;;;;23.47;43.47;100060.38;10410525;28;20285;-68
2023/09/29 10:03:21;;;;;;;6.65;3.25;;;;;;;23.39;43.48;100104.56;10440918;28;20725;-68
2023/09/29 10:08:31;;;;;;;6.95;2.90;;;;;;;22.60;44.62;100142.31;10464155;28;20247;-68
2023/09/29 10:13:35;;;;;;;3.75;2.95;;;;;;;22.89;44.45;100096.53;10471283;28;20871;-70
2023/09/29 10:18:37;;;;;;;5.70;3.20;;;;;;;23.55;43.73;100061.75;10472799;28;20320;-70
2023/09/29 10:23:46;;;;;;;4.35;2.80;;;;;;;23.93;43.24;100057.06;10471947;28;20636;-70
2023/09/29 10:28:47;;;;;;;4.75;2.97;;;;;;;23.89;43.74;100054.03;10470686;28;20330;-69
2023/09/29 10:33:54;;;;;;;3.95;3.20;;;;;;;23.68;43.86;100079.63;10469900;28;20743;-69
2023/09/29 10:38:58;;;;;;;4.90;3.08;;;;;;;24.39;43.13;100046.25;10471842;28;20227;-69
2023/09/29 10:44:01;;;;;;;4.18;3.17;;;;;;;24.21;43.35;100058.56;10471960;28;20239;-69
2023/09/29 10:49:03;;;;;;;4.53;2.97;;;;;;;24.02;43.55;100084.69;10450790;28;20725;-70
2023/09/29 10:54:07;;;;;;;5.82;3.22;;;;;;;23.99;43.75;100054.06;10453901;28;20239;-69
2023/09/29 10:59:09;;;;;;;5.25;2.88;;;;;;;24.78;43.05;100042.22;10453307;28;20263;-70
2023/09/29 11:06:17;;;;;;;4.88;3.10;;;;;;;23.18;45.49;100013.50;10585284;27;21131;-70
2023/09/29 11:11:19;;;;;;;4.60;3.25;;;;;;;23.63;45.26;99990.28;10527642;28;20273;-70
2023/09/29 11:16:24;;;;;;;4.07;3.13;;;;;;;24.23;44.19;99998.94;10508302;28;20340;-69
2023/09/29 11:21:37;;;;;;;4.47;3.00;;;;;;;23.68;45.15;99987.56;10475568;28;20630;-68
2023/09/29 11:26:42;;;;;;;5.13;3.00;;;;;;;22.79;45.48;100039.16;10499977;28;20245;-69
2023/09/29 11:31:45;;;;;;;4.22;2.80;;;;;;;23.06;45.64;100019.16;10535055;28;20232;-68
2023/09/29 11:36:48;;;;;;;6.20;2.97;;;;;;;23.49;44.84;100000.84;10543273;28;20291;-70
2023/09/29 11:41:50;;;;;;;5.53;3.17;;;;;;;22.65;45.92;100027.00;10524546;28;20225;-69
2023/09/29 11:46:52;;;;;;;4.60;3.15;;;;;;;22.90;45.87;99991.75;10548636;28;20248;-69
2023/09/29 11:51:55;;;;;;;3.95;2.72;;;;;;;23.06;46.19;99976.34;10543109;28;20321;-70
2023/09/29 11:56:57;;;;;;;5.78;3.00;;;;;;;22.76;45.62;99985.09;10540874;28;20237;-70
2023/09/29 12:01:59;;;;;;;3.55;3.08;;;;;;;23.84;44.58;99963.03;10535838;28;20268;-70
2023/09/29 12:07:04;;;;;;;3.88;2.83;;;;;;;22.59;46.23;100028.03;10538537;28;20230;-69
2023/09/29 12:12:06;;;;;;;3.67;2.13;;;;;;;22.04;47.37;100010.88;10538084;28;20238;-69
2023/09/29 12:17:07;;;;;;;2.53;2.30;;;;;;;23.22;46.07;99940.94;10495669;28;20284;-68
2023/09/29 12:22:09;;;;;;;3.08;2.47;;;;;;;22.42;47.34;100004.44;10510231;28;20241;-70
2023/09/29 12:27:11;;;;;;;3.78;2.40;;;;;;;22.12;47.59;100024.84;10504836;28;20234;-69
2023/09/29 12:32:13;;;;;;;3.20;2.33;;;;;;;22.08;48.11;100028.34;10510376;28;20238;-70
2023/09/29 12:37:14;;;;;;;4.07;2.50;;;;;;;22.26;47.73;100019.00;10507618;28;20668;-69
2023/09/29 12:42:16;;;;;;;5.93;2.67;;;;;;;22.15;48.46;100012.63;10504921;28;20330;-69
2023/09/29 12:47:18;;;;;;;4.40;2.58;;;;;;;22.48;48.09;99995.22;10504411;28;20532;-69
2023/09/29 12:52:20;;;;;;;7.03;3.38;;;;;;;22.64;48.03;99976.28;10506416;28;20250;-69
2023/09/29 12:57:22;;;;;;;5.20;2.63;;;;;;;23.21;47.33;99983.81;10503005;28;20230;-69
2023/09/29 13:02:27;;;;;;;5.68;2.58;;;;;;;21.97;49.03;100008.34;10488526;28;20234;-69
2023/09/29 13:07:32;;;;;;;3.80;2.83;;;;;;;22.31;48.15;100003.50;10492070;28;20230;-70
2023/09/29 13:12:35;;;;;;;7.50;3.33;;;;;;;21.35;49.53;100032.00;10507244;28;20234;-69
2023/09/29 13:17:37;;;;;;;6.28;3.47;;;;;;;21.48;48.54;100052.63;10509349;28;20234;-69
2023/09/29 13:22:39;;;;;;;6.43;3.38;;;;;;;21.15;48.20;100072.53;10502066;28;20234;-70
2023/09/29 13:27:40;;;;;;;7.60;3.75;;;;;;;20.37;49.28;100083.13;10437392;28;20711;-69
2023/09/29 13:32:42;;;;;;;7.95;4.25;;;;;;;21.50;48.08;100025.97;10435399;28;20223;-69
2023/09/29 13:37:44;;;;;;;9.18;4.07;;;;;;;21.64;48.00;100055.56;10508575;28;20724;-69
2023/09/29 13:42:47;;;;;;;12.25;4.30;;;;;;;21.28;48.16;100055.03;10505481;28;20223;-69
2023/09/29 13:47:49;;;;;;;8.23;5.00;;;;;;;20.85;48.06;100093.56;10505667;28;20343;-69
2023/09/29 13:52:50;;;;;;;11.18;5.70;;;;;;;21.40;47.13;100069.41;10499113;28;20782;-69
2023/09/29 13:57:52;;;;;;;10.63;5.10;;;;;;;21.60;46.37;100106.97;10502935;28;20210;-69
2023/09/29 14:02:54;;;;;;;11.48;6.40;;;;;;;20.64;47.43;100119.50;10502173;28;20230;-69
2023/09/29 14:07:56;;;;;;;13.65;6.85;;;;;;;21.61;46.42;100089.59;10506926;28;20301;-70
2023/09/29 14:12:58;;;;;;;13.38;6.65;;;;;;;21.44;46.99;100100.47;10498517;28;20229;-69
2023/09/29 14:18:00;;;;;;;13.95;7.53;;;;;;;21.00;46.96;100136.50;10502550;28;20669;-71
2023/09/29 14:23:03;;;;;;;15.25;8.02;;;;;;;20.67;47.86;100137.25;10505994;28;20227;-69
2023/09/29 14:28:05;;;;;;;15.07;7.60;;;;;;;21.14;47.34;100114.41;10501820;28;20211;-69
2023/09/29 14:33:06;;;;;;;19.27;8.70;;;;;;;20.95;47.60;100136.44;10496443;28;20645;-70
2023/09/29 14:38:09;;;;;;;16.63;8.43;;;;;;;20.55;48.24;100180.78;10498530;28;20243;-69
2023/09/29 14:43:11;;;;;;;21.58;11.02;;;;;;;20.29;47.38;100172.13;10500899;28;20267;-70
2023/09/29 14:48:13;;;;;;;19.65;10.57;;;;;;;20.74;47.10;100169.72;10491385;28;20245;-69
2023/09/29 14:53:15;;;;;;;16.30;9.05;;;;;;;20.83;47.42;100141.09;10501074;28;20230;-69
2023/09/29 14:58:17;;;;;;;19.27;10.57;;;;;;;21.55;45.80;100137.66;10498414;28;20230;-70
2023/09/29 15:03:19;;;;;;;22.20;11.52;;;;;;;21.02;46.30;100167.00;10491088;28;20613;-69
2023/09/29 15:08:21;;;;;;;24.63;12.38;;;;;;;20.81;45.61;100211.22;10494422;28;20231;-69
2023/09/29 15:13:24;;;;;;;28.02;14.13;;;;;;;21.07;45.12;100188.03;10495167;28;20231;-70
2023/09/29 15:18:26;;;;;;;27.77;14.07;;;;;;;20.85;45.22;100175.16;10492424;28;20239;-70
2023/09/29 15:23:28;;;;;;;28.30;14.68;;;;;;;21.17;44.35;100152.84;10495955;28;20717;-69
2023/09/29 15:28:30;;;;;;;28.20;14.73;;;;;;;20.11;45.58;100234.75;10500291;28;20234;-69
2023/09/29 15:33:31;;;;;;;28.45;14.27;;;;;;;20.50;45.44;100216.03;10501068;28;20230;-68
2023/09/29 15:38:34;;;;;;;26.95;14.45;;;;;;;20.21;46.13;100185.25;10499773;28;20321;-70
2023/09/29 15:43:36;;;;;;;27.98;13.57;;;;;;;20.26;45.37;100204.38;10489494;28;20262;-69
2023/09/29 15:48:38;;;;;;;31.92;14.00;;;;;;;19.35;45.79;100280.63;10494968;28;20747;-70
2023/09/29 15:53:43;;;;;;;23.38;12.02;;;;;;;19.86;45.13;100265.66;10500383;28;20333;-70
2023/09/29 15:58:45;;;;;;;24.15;11.15;;;;;;;20.46;44.85;100225.72;10501649;28;20273;-70
2023/09/29 16:03:48;;;;;;;25.48;12.10;;;;;;;20.63;44.60;100232.06;10501557;28;20394;-70
2023/09/29 16:08:50;;;;;;;21.73;10.35;;;;;;;20.85;44.04;100236.84;10498725;28;20327;-69
2023/09/29 16:13:52;;;;;;;15.90;8.30;;;;;;;20.50;44.86;100238.59;10503688;28;20751;-69
2023/09/29 16:18:54;;;;;;;15.50;7.32;;;;;;;20.68;44.45;100237.59;10503838;28;20723;-70
2023/09/29 16:23:55;;;;;;;13.13;6.97;;;;;;;20.00;45.59;100260.81;10500918;28;20237;-70
2023/09/29 16:28:57;;;;;;;11.95;6.50;;;;;;;20.98;44.05;100243.91;10499086;28;20242;-68
2023/09/29 16:33:59;;;;;;;13.10;6.28;;;;;;;21.07;44.15;100266.09;10501861;28;20233;-70
2023/09/29 16:39:01;;;;;;;12.27;5.53;;;;;;;20.51;45.02;100263.88;10498268;28;20237;-71
2023/09/29 16:44:08;;;;;;;11.57;5.43;;;;;;;21.51;43.81;100244.59;10502612;28;21184;-70
2023/09/29 16:49:10;;;;;;;9.32;4.47;;;;;;;21.57;44.20;100257.22;10502056;28;20322;-68
2023/09/29 16:54:12;;;;;;;9.65;4.68;;;;;;;20.42;45.41;100346.84;10503078;28;20258;-68
2023/09/29 16:59:14;;;;;;;8.95;4.38;;;;;;;21.32;44.16;100304.66;10505847;28;20441;-68
2023/09/29 17:04:16;;;;;;;10.63;4.68;;;;;;;22.40;42.70;100306.47;10505973;28;20238;-71
2023/09/29 17:09:19;;;;;;;11.20;4.10;;;;;;;19.95;46.42;100315.84;10506805;28;20230;-71
2023/09/29 17:14:21;;;;;;;8.32;3.90;;;;;;;20.22;46.67;100296.41;10499385;28;20246;-71
2023/09/29 17:19:23;;;;;;;7.78;3.55;;;;;;;21.16;44.96;100329.97;10508431;28;20752;-71
2023/09/29 17:24:25;;;;;;;12.57;3.58;;;;;;;20.12;46.43;100337.69;10501484;28;20408;-70
2023/09/29 17:29:27;;;;;;;7.80;3.42;;;;;;;19.22;48.64;100345.94;10507568;28;20231;-70
2023/09/29 17:34:31;;;;;;;11.43;3.50;;;;;;;19.60;48.61;100257.94;10499994;28;20234;-70
2023/09/29 17:39:33;;;;;;;6.80;3.28;;;;;;;18.87;49.56;100324.84;10502497;28;20235;-70
2023/09/29 17:44:34;;;;;;;6.00;2.60;;;;;;;19.85;48.67;100284.91;10500875;28;20230;-70
2023/09/29 17:49:37;;;;;;;6.18;2.85;;;;;;;19.33;49.82;100280.03;10506671;28;20238;-70
2023/09/29 17:54:38;;;;;;;6.00;2.72;;;;;;;19.60;49.51;100252.53;10504865;28;20235;-70
2023/09/29 17:59:40;;;;;;;5.22;2.70;;;;;;;19.84;48.73;100319.38;10504542;28;20253;-69
2023/09/29 18:04:42;;;;;;;6.43;3.53;;;;;;;18.91;51.25;100317.91;10504107;28;20310;-70
2023/09/29 18:09:44;;;;;;;7.38;3.60;;;;;;;19.78;49.27;100328.44;10503155;28;20458;-70
2023/09/29 18:14:46;;;;;;;10.45;4.13;;;;;;;19.30;50.50;100324.75;10507710;28;20231;-68
2023/09/29 18:19:48;;;;;;;9.05;4.00;;;;;;;19.92;49.42;100315.47;10500807;28;20227;-71
2023/09/29 18:24:49;;;;;;;9.75;4.05;;;;;;;19.78;50.10;100331.16;10508621;28;20240;-70
2023/09/29 18:29:52;;;;;;;9.57;4.28;;;;;;;18.82;51.37;100372.44;10508311;28;20233;-71
2023/09/29 18:34:53;;;;;;;6.63;3.47;;;;;;;19.54;50.25;100341.94;10498116;28;20258;-70
2023/09/29 18:39:57;;;;;;;8.80;4.07;;;;;;;20.07;49.62;100344.91;10506642;28;20226;-68
2023/09/29 18:44:59;;;;;;;7.07;3.60;;;;;;;18.96;51.37;100378.59;10505654;28;20324;-69
2023/09/29 18:50:01;;;;;;;6.50;3.08;;;;;;;18.74;52.52;100361.06;10498048;28;20415;-70
2023/09/29 18:55:04;;;;;;;6.05;2.80;;;;;;;19.11;51.34;100410.72;10504101;28;20317;-70
2023/09/29 19:00:08;;;;;;;4.57;2.85;;;;;;;18.75;52.05;100425.06;10507053;28;20313;-70
2023/09/29 19:05:10;;;;;;;4.38;2.88;;;;;;;18.29;54.25;100402.78;10508243;28;20603;-70
2023/09/29 19:10:15;;;;;;;3.83;2.60;;;;;;;18.39;53.84;100421.22;10503687;28;20237;-70
2023/09/29 19:15:17;;;;;;;3.53;2.25;;;;;;;18.77;53.26;100412.13;10508516;28;20254;-69
2023/09/29 19:20:18;;;;;;;21.95;2.67;;;;;;;17.67;55.54;100460.19;10503750;28;20709;-68
2023/09/29 19:25:20;;;;;;;3.28;2.13;;;;;;;19.10;52.71;100459.81;10511158;28;20528;-70
2023/09/29 19:30:22;;;;;;;3.65;2.08;;;;;;;18.58;53.36;100487.16;10513245;28;20254;-70
2023/09/29 19:35:24;;;;;;;3.38;2.17;;;;;;;18.35;53.89;100480.44;10495869;28;20230;-68
2023/09/29 19:40:26;;;;;;;2.47;1.80;;;;;;;18.57;52.85;100493.63;10512534;28;20227;-68
2023/09/29 19:45:28;;;;;;;2.92;2.00;;;;;;;18.49;53.92;100483.03;10517443;28;20312;-68
2023/09/29 19:50:30;;;;;;;3.28;1.98;;;;;;;17.42;55.75;100541.22;10509157;28;20238;-69
2023/09/29 19:55:32;;;;;;;4.25;1.92;;;;;;;17.35;56.04;100527.69;10506653;28;20235;-69
2023/09/29 20:00:33;;;;;;;5.57;2.08;;;;;;;17.83;56.03;100439.94;10513059;28;20326;-69
2023/09/29 20:05:39;;;;;;;2.78;1.90;;;;;;;17.51;56.08;100485.00;10510625;28;20234;-69
2023/09/29 20:10:42;;;;;;;2.63;1.95;;;;;;;18.39;55.08;100438.31;10512345;28;20230;-68
2023/09/29 20:15:45;;;;;;;3.00;2.03;;;;;;;17.48;56.84;100507.09;10504051;28;20334;-68
2023/09/29 20:20:47;;;;;;;4.22;2.22;;;;;;;17.91;56.13;100457.78;10509941;28;20262;-69
2023/09/29 20:25:49;;;;;;;4.25;1.75;;;;;;;17.57;56.43;100484.16;10500255;28;20230;-69
2023/09/29 20:30:51;;;;;;;3.28;2.17;;;;;;;16.93;57.60;100516.28;10508974;28;20226;-69
2023/09/29 20:35:52;;;;;;;3.40;2.25;;;;;;;17.60;57.09;100481.00;10510149;28;20496;-69
2023/09/29 20:40:55;;;;;;;4.20;2.15;;;;;;;17.55;56.93;100484.34;10507007;28;20237;-69
2023/09/29 20:45:56;;;;;;;3.78;1.98;;;;;;;16.95;58.00;100532.34;10501229;28;20391;-69
2023/09/29 20:50:58;;;;;;;3.30;1.90;;;;;;;18.09;54.64;100568.91;10509077;28;20230;-69
2023/09/29 20:56:00;;;;;;;3.97;2.22;;;;;;;18.30;54.95;100512.78;10511004;28;20226;-69
2023/09/29 21:01:02;;;;;;;2.78;1.60;;;;;;;16.76;57.83;100596.97;10512801;28;20227;-69
2023/09/29 21:06:06;;;;;;;3.40;2.00;;;;;;;17.49;57.31;100514.97;10508414;28;20223;-70
2023/09/29 21:11:08;;;;;;;1.88;1.67;;;;;;;17.07;57.67;100576.63;10507233;28;20222;-70
2023/09/29 21:16:09;;;;;;;2.22;1.90;;;;;;;18.31;55.28;100516.34;10506075;28;20228;-70
2023/09/29 21:21:11;;;;;;;4.05;2.50;;;;;;;17.38;57.21;100545.41;10509175;28;20238;-69
2023/09/29 21:26:14;;;;;;;4.30;2.22;;;;;;;16.52;58.21;100624.56;10501070;28;20288;-71
2023/09/29 21:31:19;;;;;;;2.90;2.28;;;;;;;16.77;58.17;100585.13;10504935;28;20321;-70
2023/09/29 21:36:21;;;;;;;3.97;2.00;;;;;;;17.62;56.05;100549.28;10508415;28;20708;-70
2023/09/29 21:41:23;;;;;;;2.78;1.88;;;;;;;16.84;57.39;100595.09;10507306;28;20237;-70
2023/09/29 21:46:25;;;;;;;4.22;2.10;;;;;;;17.52;56.04;100587.59;10503913;28;20261;-67
2023/09/29 21:51:28;;;;;;;2.65;1.85;;;;;;;16.99;56.40;100636.34;10510606;28;20325;-71
2023/09/29 21:56:29;;;;;;;3.28;2.13;;;;;;;16.52;57.27;100665.91;10503053;28;20231;-68
2023/09/29 22:01:32;;;;;;;3.35;2.22;;;;;;;17.53;55.01;100637.97;10509704;28;20702;-68
2023/09/29 22:06:33;;;;;;;1.90;1.80;;;;;;;17.14;56.40;100611.75;10506345;28;20834;-68
2023/09/29 22:11:37;;;;;;;4.18;2.20;;;;;;;17.07;56.78;100638.81;10504973;28;20313;-67
2023/09/29 22:16:40;;;;;;;3.75;1.90;;;;;;;16.62;57.09;100657.44;10503128;28;20230;-68
2023/09/29 22:21:41;;;;;;;2.72;2.17;;;;;;;16.76;57.06;100653.72;10501702;28;20748;-69
2023/09/29 22:26:43;;;;;;;3.30;2.22;;;;;;;15.95;58.84;100684.09;10503164;28;20280;-69
2023/09/29 22:31:45;;;;;;;3.80;2.27;;;;;;;16.21;57.63;100702.34;10500761;28;20237;-68
2023/09/29 22:36:46;;;;;;;4.53;2.88;;;;;;;17.00;56.67;100619.06;10505655;28;20264;-69
2023/09/29 22:41:49;;;;;;;2.65;2.00;;;;;;;17.97;55.13;100558.97;10503034;28;20329;-69
2023/09/29 22:46:53;;;;;;;4.57;2.27;;;;;;;17.31;54.22;100739.34;10477466;28;20322;-68
2023/09/29 22:51:55;;;;;;;3.87;2.17;;;;;;;16.25;57.52;100687.38;10501757;28;20737;-68
2023/09/29 22:56:57;;;;;;;2.20;1.90;;;;;;;16.29;56.82;100724.81;10506495;28;22473;-67
2023/09/29 23:01:58;;;;;;;3.10;2.10;;;;;;;17.14;56.09;100665.84;10504427;28;20321;-70
2023/09/29 23:07:01;;;;;;;2.90;2.20;;;;;;;16.50;56.79;100711.22;10501942;28;20538;-67
2023/09/29 23:12:03;;;;;;;2.97;2.30;;;;;;;17.84;54.83;100641.06;10499737;28;20672;-69